Time;durP1;ratioP1;P1;durP2;ratioP2;P2;SDS_P1;SDS_P2;PMS_P1;PMS_P2;Temp;Humidity;BMP_temperature;BMP_pressure;BME280_temperature;BME280_humidity;BME280_pressure;Samples;Min_cycle;Max_cycle;Signal;HPM_P1;HPM_P2
2022/12/02 00:02:19;;;;;;;40.03;15.50;;;;;;;;;;5033072;28;20026;-59
2022/12/02 00:04:44;;;;;;;42.50;16.08;;;;;;;;;;5032356;28;20025;-59
2022/12/02 00:07:14;;;;;;;44.27;16.57;;;;;;;;;;5033473;28;20080;-58
2022/12/02 00:09:41;;;;;;;37.83;15.85;;;;;;;;;;5031539;28;20026;-59
2022/12/02 00:12:15;;;;;;;42.22;16.60;;;;;;;;;;5030997;28;20564;-59
2022/12/02 00:14:40;;;;;;;43.15;16.70;;;;;;;;;;5031490;28;20033;-59
2022/12/02 00:17:05;;;;;;;41.47;16.40;;;;;;;;;;5031996;28;20067;-59
2022/12/02 00:19:31;;;;;;;40.17;16.67;;;;;;;;;;5033527;28;20025;-59
2022/12/02 00:21:56;;;;;;;39.60;15.25;;;;;;;;;;5033284;28;20373;-59
2022/12/02 00:24:21;;;;;;;44.30;17.17;;;;;;;;;;5032725;28;20033;-59
2022/12/02 00:26:46;;;;;;;40.13;15.70;;;;;;;;;;5031607;28;20032;-59
2022/12/02 00:29:11;;;;;;;42.53;16.67;;;;;;;;;;5033364;28;20108;-59
2022/12/02 00:31:36;;;;;;;46.80;18.27;;;;;;;;;;5033326;28;20495;-59
2022/12/02 00:34:02;;;;;;;44.37;17.03;;;;;;;;;;5032849;28;20018;-59
2022/12/02 00:36:27;;;;;;;40.17;15.73;;;;;;;;;;5031668;28;20488;-59
2022/12/02 00:38:53;;;;;;;43.70;17.30;;;;;;;;;;5032845;28;20013;-59
2022/12/02 00:41:18;;;;;;;44.72;17.15;;;;;;;;;;5032396;28;20022;-58
2022/12/02 00:46:36;;;;;;;50.20;17.55;;;;;;;;;;5027124;28;20036;-58
2022/12/02 00:49:01;;;;;;;45.03;16.88;;;;;;;;;;5028447;28;20025;-58
2022/12/02 00:51:27;;;;;;;43.47;16.70;;;;;;;;;;5032100;28;20508;-58
2022/12/02 00:53:52;;;;;;;42.10;16.40;;;;;;;;;;5030897;28;20029;-59
2022/12/02 00:56:17;;;;;;;42.93;15.97;;;;;;;;;;5028526;28;20018;-58
2022/12/02 00:58:42;;;;;;;42.83;16.07;;;;;;;;;;5023950;28;20025;-59
2022/12/02 01:01:07;;;;;;;44.33;17.60;;;;;;;;;;5029634;28;20028;-58
2022/12/02 01:03:32;;;;;;;41.03;16.13;;;;;;;;;;5030502;28;20025;-59
2022/12/02 01:05:58;;;;;;;39.83;15.93;;;;;;;;;;5031182;28;20108;-59
2022/12/02 01:08:26;;;;;;;40.50;15.40;;;;;;;;;;5031221;28;20041;-58
2022/12/02 01:10:51;;;;;;;41.85;16.15;;;;;;;;;;5022646;28;20021;-58
2022/12/02 01:13:16;;;;;;;43.35;16.88;;;;;;;;;;5029684;28;20511;-58
2022/12/02 01:15:41;;;;;;;40.27;15.13;;;;;;;;;;5031153;28;20029;-58
2022/12/02 01:18:07;;;;;;;41.40;16.90;;;;;;;;;;5029383;28;20492;-59
2022/12/02 01:20:32;;;;;;;46.03;16.67;;;;;;;;;;5030409;28;20022;-58
2022/12/02 01:22:57;;;;;;;47.90;17.53;;;;;;;;;;5029548;28;20036;-58
2022/12/02 01:25:22;;;;;;;44.28;18.13;;;;;;;;;;5040399;28;20029;-59
2022/12/02 01:27:47;;;;;;;42.77;18.00;;;;;;;;;;5029557;28;20033;-59
2022/12/02 01:30:13;;;;;;;42.50;16.03;;;;;;;;;;5035390;28;20056;-59
2022/12/02 01:32:38;;;;;;;44.08;16.58;;;;;;;;;;5033169;28;20033;-59
2022/12/02 01:35:03;;;;;;;46.40;17.87;;;;;;;;;;5030816;28;20491;-59
2022/12/02 01:37:29;;;;;;;39.40;15.35;;;;;;;;;;5031824;28;20155;-59
2022/12/02 01:39:54;;;;;;;44.20;17.03;;;;;;;;;;5031945;28;20021;-59
2022/12/02 01:42:19;;;;;;;40.67;15.90;;;;;;;;;;5031302;28;20465;-59
2022/12/02 01:44:44;;;;;;;46.93;17.80;;;;;;;;;;5032282;28;20049;-58
2022/12/02 01:47:09;;;;;;;43.57;16.90;;;;;;;;;;5030885;28;20037;-57
2022/12/02 01:49:34;;;;;;;44.83;15.67;;;;;;;;;;5031637;28;20053;-60
2022/12/02 01:52:00;;;;;;;42.80;15.50;;;;;;;;;;5031106;28;20052;-58
2022/12/02 01:54:25;;;;;;;41.93;16.30;;;;;;;;;;5031620;28;20025;-59
2022/12/02 01:56:50;;;;;;;49.22;18.80;;;;;;;;;;5029404;28;20014;-59
2022/12/02 01:59:16;;;;;;;46.67;17.73;;;;;;;;;;5031242;28;20021;-59
2022/12/02 02:01:42;;;;;;;44.97;16.17;;;;;;;;;;5031450;28;20499;-59
2022/12/02 02:04:07;;;;;;;43.90;17.40;;;;;;;;;;5029428;28;20025;-59
2022/12/02 02:06:35;;;;;;;41.60;16.70;;;;;;;;;;5028450;28;20013;-59
2022/12/02 02:09:00;;;;;;;42.55;15.55;;;;;;;;;;5029621;28;20033;-59
2022/12/02 02:11:25;;;;;;;45.77;17.10;;;;;;;;;;5031340;28;20377;-59
2022/12/02 02:13:51;;;;;;;44.67;16.73;;;;;;;;;;5031134;28;20488;-58
2022/12/02 02:16:17;;;;;;;38.83;15.63;;;;;;;;;;5030452;28;20026;-59
2022/12/02 02:18:42;;;;;;;42.63;16.53;;;;;;;;;;5029848;28;20024;-59
2022/12/02 02:21:13;;;;;;;42.13;16.33;;;;;;;;;;5031373;28;20025;-58
2022/12/02 02:23:39;;;;;;;39.10;15.07;;;;;;;;;;5034487;28;20370;-58
2022/12/02 02:26:04;;;;;;;39.63;15.10;;;;;;;;;;5030111;28;20045;-59
2022/12/02 02:28:29;;;;;;;39.00;15.13;;;;;;;;;;5029054;28;20025;-59
2022/12/02 02:30:55;;;;;;;38.40;16.63;;;;;;;;;;5028637;28;20468;-59
2022/12/02 02:33:21;;;;;;;35.55;15.43;;;;;;;;;;5027968;28;20813;-59
2022/12/02 02:35:46;;;;;;;38.55;14.63;;;;;;;;;;5036541;28;20123;-59
2022/12/02 02:38:14;;;;;;;33.45;15.10;;;;;;;;;;5025773;28;20028;-59
2022/12/02 02:40:40;;;;;;;34.72;15.23;;;;;;;;;;5033668;28;20100;-59
2022/12/02 02:43:05;;;;;;;33.63;14.88;;;;;;;;;;5030170;28;20640;-58
2022/12/02 02:45:32;;;;;;;35.70;14.93;;;;;;;;;;5041470;28;20021;-58
2022/12/02 02:47:57;;;;;;;;;;;;;;;;;;5030514;28;20047;-59
2022/12/02 02:50:23;;;;;;;33.58;14.05;;;;;;;;;;5029567;28;19913;-58
2022/12/02 02:52:48;;;;;;;39.20;15.45;;;;;;;;;;5030534;28;20433;-58
2022/12/02 02:55:17;;;;;;;32.20;13.95;;;;;;;;;;5019316;28;20080;-59
2022/12/02 02:57:42;;;;;;;32.72;14.00;;;;;;;;;;5037083;28;20104;-58
2022/12/02 03:00:07;;;;;;;33.87;13.43;;;;;;;;;;5029243;28;20557;-58
2022/12/02 03:02:33;;;;;;;32.28;14.07;;;;;;;;;;5028858;28;20022;-58
2022/12/02 03:04:58;;;;;;;31.93;13.50;;;;;;;;;;5029758;28;20473;-58
2022/12/02 03:07:23;;;;;;;30.37;13.20;;;;;;;;;;5030073;28;20049;-59
2022/12/02 03:09:49;;;;;;;30.92;12.75;;;;;;;;;;5029677;28;20031;-59
2022/12/02 03:12:14;;;;;;;32.80;14.05;;;;;;;;;;5028242;28;20037;-59
2022/12/02 03:14:40;;;;;;;32.35;12.85;;;;;;;;;;5030183;28;20448;-59
2022/12/02 03:17:05;;;;;;;31.30;13.75;;;;;;;;;;5029164;28;20021;-59
2022/12/02 03:19:31;;;;;;;33.20;13.67;;;;;;;;;;5028561;28;20045;-58
2022/12/02 03:21:57;;;;;;;34.05;14.75;;;;;;;;;;5029335;28;20444;-58
2022/12/02 03:24:22;;;;;;;29.20;13.15;;;;;;;;;;5033441;28;20051;-58
2022/12/02 03:26:48;;;;;;;34.97;14.53;;;;;;;;;;5031154;28;20025;-58
2022/12/02 03:29:13;;;;;;;34.08;14.32;;;;;;;;;;5030507;28;20456;-59
2022/12/02 03:31:39;;;;;;;33.83;14.10;;;;;;;;;;5027733;28;20499;-58
2022/12/02 03:34:04;;;;;;;35.23;14.70;;;;;;;;;;5029898;28;20255;-58
2022/12/02 03:36:29;;;;;;;33.22;14.40;;;;;;;;;;5029892;28;20021;-58
2022/12/02 03:38:55;;;;;;;33.30;13.77;;;;;;;;;;5029858;28;20074;-58
2022/12/02 03:41:20;;;;;;;33.27;14.70;;;;;;;;;;5025518;28;20025;-60
2022/12/02 03:43:46;;;;;;;32.92;14.35;;;;;;;;;;5027920;28;20854;-58
2022/12/02 03:46:11;;;;;;;29.33;12.20;;;;;;;;;;5019276;28;20049;-58
2022/12/02 03:48:37;;;;;;;31.27;13.00;;;;;;;;;;5027595;28;20543;-58
2022/12/02 03:51:02;;;;;;;31.83;13.90;;;;;;;;;;5025187;28;20030;-58
2022/12/02 03:53:28;;;;;;;35.53;14.67;;;;;;;;;;5032195;28;20083;-59
2022/12/02 03:55:53;;;;;;;32.53;14.02;;;;;;;;;;5029095;28;20060;-59
2022/12/02 03:58:18;;;;;;;32.55;13.70;;;;;;;;;;5039794;28;20040;-59
2022/12/02 04:00:44;;;;;;;35.60;13.73;;;;;;;;;;5029764;28;20014;-59
2022/12/02 04:03:09;;;;;;;35.17;13.80;;;;;;;;;;5027574;28;20476;-59
2022/12/02 04:05:34;;;;;;;31.00;12.73;;;;;;;;;;5029796;28;20079;-59
2022/12/02 04:07:59;;;;;;;34.30;15.33;;;;;;;;;;5028788;28;20105;-59
2022/12/02 04:10:24;;;;;;;35.93;14.97;;;;;;;;;;5027066;28;20021;-59
2022/12/02 04:12:49;;;;;;;30.87;13.70;;;;;;;;;;5023033;28;20159;-58
2022/12/02 04:15:15;;;;;;;31.67;13.47;;;;;;;;;;5027642;28;20037;-58
2022/12/02 04:17:40;;;;;;;32.27;13.63;;;;;;;;;;5028330;28;20380;-59
2022/12/02 04:20:06;;;;;;;32.70;13.50;;;;;;;;;;5024039;28;20429;-59
2022/12/02 04:22:31;;;;;;;33.03;14.43;;;;;;;;;;5028736;28;20025;-58
2022/12/02 04:24:58;;;;;;;33.40;15.37;;;;;;;;;;5029577;28;20095;-58
2022/12/02 04:27:23;;;;;;;33.90;14.50;;;;;;;;;;5030843;28;20029;-59
2022/12/02 04:29:48;;;;;;;31.50;13.30;;;;;;;;;;5034189;28;20036;-58
2022/12/02 04:32:14;;;;;;;33.70;14.27;;;;;;;;;;5034381;28;20029;-59
2022/12/02 04:34:39;;;;;;;32.70;13.73;;;;;;;;;;5031055;28;20083;-59
2022/12/02 04:37:04;;;;;;;32.90;15.23;;;;;;;;;;5032852;28;20030;-59
2022/12/02 04:39:30;;;;;;;33.08;13.68;;;;;;;;;;5032260;28;20480;-59
2022/12/02 04:41:55;;;;;;;35.83;15.50;;;;;;;;;;5030844;28;20388;-59
2022/12/02 04:44:20;;;;;;;32.20;13.73;;;;;;;;;;5031517;28;20454;-59
2022/12/02 04:46:45;;;;;;;31.33;14.23;;;;;;;;;;5036734;28;20022;-59
2022/12/02 04:49:10;;;;;;;32.73;14.50;;;;;;;;;;5032103;28;20151;-59
2022/12/02 04:51:36;;;;;;;29.90;12.47;;;;;;;;;;5033087;28;20025;-58
2022/12/02 04:54:01;;;;;;;30.05;13.13;;;;;;;;;;5030408;28;20083;-58
2022/12/02 04:56:26;;;;;;;30.83;13.10;;;;;;;;;;5030363;28;20029;-59
2022/12/02 04:58:51;;;;;;;29.60;12.20;;;;;;;;;;5032403;28;20119;-58
2022/12/02 05:01:16;;;;;;;29.30;12.33;;;;;;;;;;5028161;28;20021;-59
2022/12/02 05:03:41;;;;;;;32.90;13.77;;;;;;;;;;5031520;28;20453;-59
2022/12/02 05:06:07;;;;;;;33.30;13.60;;;;;;;;;;5028497;28;20033;-59
2022/12/02 05:08:32;;;;;;;31.43;13.57;;;;;;;;;;5028292;28;20112;-58
2022/12/02 05:10:57;;;;;;;29.10;12.73;;;;;;;;;;5030567;28;20032;-58
2022/12/02 05:13:22;;;;;;;30.20;13.17;;;;;;;;;;5027883;28;20064;-58
2022/12/02 05:15:47;;;;;;;31.67;13.33;;;;;;;;;;5030559;28;20064;-59
2022/12/02 05:18:12;;;;;;;33.53;14.20;;;;;;;;;;5031403;28;20028;-58
2022/12/02 05:20:38;;;;;;;31.33;13.57;;;;;;;;;;5029846;28;20021;-58
2022/12/02 05:23:03;;;;;;;31.90;14.13;;;;;;;;;;5031474;28;20024;-57
2022/12/02 05:25:28;;;;;;;31.80;13.57;;;;;;;;;;5028413;28;20040;-58
2022/12/02 05:27:54;;;;;;;30.67;13.13;;;;;;;;;;5023024;28;20037;-58
2022/12/02 05:30:19;;;;;;;31.83;13.85;;;;;;;;;;5040974;28;20030;-60
2022/12/02 05:32:44;;;;;;;30.83;13.57;;;;;;;;;;5045227;28;20032;-59
2022/12/02 05:35:10;;;;;;;28.58;12.75;;;;;;;;;;5037489;28;20116;-59
2022/12/02 05:37:35;;;;;;;28.07;12.70;;;;;;;;;;5037044;28;20056;-58
2022/12/02 05:40:01;;;;;;;29.67;13.30;;;;;;;;;;5028168;28;20068;-63
2022/12/02 05:42:26;;;;;;;27.40;11.65;;;;;;;;;;5026140;28;20033;-63
2022/12/02 05:44:52;;;;;;;28.92;12.00;;;;;;;;;;5029537;28;20487;-63
2022/12/02 05:47:17;;;;;;;30.58;12.80;;;;;;;;;;5026999;28;20033;-63
2022/12/02 05:49:43;;;;;;;28.33;13.20;;;;;;;;;;5027455;28;20025;-62
2022/12/02 05:52:22;;;;;;;32.83;13.73;;;;;;;;;;5028352;28;20056;-62
2022/12/02 05:54:47;;;;;;;;;;;;;;;;;;5028995;28;20676;-62
2022/12/02 05:57:12;;;;;;;27.00;11.20;;;;;;;;;;5028088;28;19951;-62
2022/12/02 05:59:38;;;;;;;29.52;12.63;;;;;;;;;;5027010;28;20036;-62
2022/12/02 06:02:10;;;;;;;31.10;12.77;;;;;;;;;;5029048;28;20020;-62
2022/12/02 06:04:35;;;;;;;30.35;12.27;;;;;;;;;;5028234;28;20032;-62
2022/12/02 06:07:07;;;;;;;28.97;12.50;;;;;;;;;;5028532;28;20025;-63
2022/12/02 06:09:32;;;;;;;29.30;12.98;;;;;;;;;;5021695;28;21165;-63
2022/12/02 06:11:59;;;;;;;32.22;14.15;;;;;;;;;;5025084;28;20041;-62
2022/12/02 06:14:27;;;;;;;27.83;12.57;;;;;;;;;;5027394;28;20112;-62
2022/12/02 06:16:58;;;;;;;29.70;13.82;;;;;;;;;;5027160;28;20420;-63
2022/12/02 06:19:26;;;;;;;30.55;13.38;;;;;;;;;;5011688;28;20540;-62
2022/12/02 06:21:52;;;;;;;30.10;13.18;;;;;;;;;;5030418;28;20025;-63
2022/12/02 06:24:21;;;;;;;33.45;12.80;;;;;;;;;;5031248;28;20029;-63
2022/12/02 06:26:49;;;;;;;32.95;13.32;;;;;;;;;;5024649;28;20029;-64
2022/12/02 06:29:16;;;;;;;28.88;12.68;;;;;;;;;;5026714;28;20021;-60
2022/12/02 06:31:42;;;;;;;32.65;14.70;;;;;;;;;;5027441;28;20029;-59
2022/12/02 06:34:21;;;;;;;29.15;12.68;;;;;;;;;;5030360;28;20021;-58
2022/12/02 06:36:46;;;;;;;32.22;14.48;;;;;;;;;;5029105;28;20052;-59
2022/12/02 06:39:21;;;;;;;28.73;12.77;;;;;;;;;;5027767;28;20053;-59
2022/12/02 06:41:46;;;;;;;28.70;12.50;;;;;;;;;;5018092;28;20052;-60
2022/12/02 06:46:59;;;;;;;25.95;12.35;;;;;;;;;;5031496;28;20051;-59
2022/12/02 06:49:29;;;;;;;26.83;12.40;;;;;;;;;;5030804;28;20461;-58
2022/12/02 06:52:00;;;;;;;29.05;12.60;;;;;;;;;;5030621;28;20030;-59
2022/12/02 06:54:27;;;;;;;26.65;12.30;;;;;;;;;;5030822;28;20030;-59
2022/12/02 06:56:52;;;;;;;25.17;11.18;;;;;;;;;;5031208;28;20429;-58
2022/12/02 06:59:19;;;;;;;27.95;12.38;;;;;;;;;;5028940;28;20048;-59
2022/12/02 07:01:45;;;;;;;25.30;11.70;;;;;;;;;;5031068;28;20010;-59
2022/12/02 07:04:24;;;;;;;26.10;12.20;;;;;;;;;;5030878;28;20483;-59
2022/12/02 07:06:50;;;;;;;26.33;12.38;;;;;;;;;;5030771;28;20079;-57
2022/12/02 07:09:18;;;;;;;28.70;13.02;;;;;;;;;;5031222;28;20033;-58
2022/12/02 07:11:51;;;;;;;29.05;12.40;;;;;;;;;;5030507;28;20417;-59
2022/12/02 07:14:19;;;;;;;26.85;11.93;;;;;;;;;;5030836;28;20389;-59
2022/12/02 07:16:45;;;;;;;27.50;12.55;;;;;;;;;;5030645;28;20530;-59
2022/12/02 07:19:15;;;;;;;27.37;12.47;;;;;;;;;;5030804;28;20100;-59
2022/12/02 07:21:40;;;;;;;27.60;12.00;;;;;;;;;;5030472;28;20163;-59
2022/12/02 07:24:07;;;;;;;28.95;12.90;;;;;;;;;;5030660;28;20097;-59
2022/12/02 07:26:32;;;;;;;26.52;11.82;;;;;;;;;;5030572;28;20022;-58
2022/12/02 07:28:58;;;;;;;26.93;10.70;;;;;;;;;;5030350;28;20037;-59
2022/12/02 07:31:25;;;;;;;28.02;11.60;;;;;;;;;;5030858;28;20021;-59
2022/12/02 07:33:51;;;;;;;27.52;12.00;;;;;;;;;;5030333;28;20025;-59
2022/12/02 07:36:16;;;;;;;27.48;12.18;;;;;;;;;;5030820;28;20013;-58
2022/12/02 07:38:41;;;;;;;27.92;12.57;;;;;;;;;;5030572;28;20516;-58
2022/12/02 07:41:07;;;;;;;26.37;12.13;;;;;;;;;;5030311;28;20091;-59
2022/12/02 07:43:32;;;;;;;27.87;11.67;;;;;;;;;;5030465;28;20530;-58
2022/12/02 07:45:58;;;;;;;26.27;11.50;;;;;;;;;;5030480;28;20027;-58
2022/12/02 07:48:23;;;;;;;23.30;11.15;;;;;;;;;;5030377;28;20025;-59
2022/12/02 07:50:48;;;;;;;27.23;12.35;;;;;;;;;;5030431;28;20025;-59
2022/12/02 07:53:14;;;;;;;25.05;11.02;;;;;;;;;;5030245;28;20036;-59
2022/12/02 07:55:39;;;;;;;28.97;12.33;;;;;;;;;;5030095;28;20025;-59
2022/12/02 07:58:04;;;;;;;26.08;11.93;;;;;;;;;;5030449;28;20040;-58
2022/12/02 08:00:29;;;;;;;26.07;12.07;;;;;;;;;;5030553;28;20067;-62
2022/12/02 08:02:55;;;;;;;26.97;10.70;;;;;;;;;;5032645;28;20024;-58
2022/12/02 08:05:20;;;;;;;27.52;11.82;;;;;;;;;;5034159;28;20469;-59
2022/12/02 08:07:45;;;;;;;23.65;11.15;;;;;;;;;;5034258;28;20080;-59
2022/12/02 08:10:11;;;;;;;25.57;11.57;;;;;;;;;;5034155;28;20158;-58
2022/12/02 08:12:38;;;;;;;25.77;11.30;;;;;;;;;;5033905;28;20045;-61
2022/12/02 08:15:03;;;;;;;26.92;12.15;;;;;;;;;;5034036;28;20032;-59
2022/12/02 08:17:28;;;;;;;29.55;12.50;;;;;;;;;;5033886;28;20013;-59
2022/12/02 08:19:54;;;;;;;29.83;13.32;;;;;;;;;;5034104;28;20025;-59
2022/12/02 08:22:19;;;;;;;31.90;15.60;;;;;;;;;;5033980;28;20018;-59
2022/12/02 08:24:44;;;;;;;30.30;13.40;;;;;;;;;;5033650;28;20087;-59
2022/12/02 08:27:09;;;;;;;28.03;13.07;;;;;;;;;;5033788;28;20041;-59
2022/12/02 08:29:34;;;;;;;29.90;13.93;;;;;;;;;;5033807;28;20025;-59
2022/12/02 08:31:59;;;;;;;32.57;13.57;;;;;;;;;;5033897;28;20044;-59
2022/12/02 08:34:25;;;;;;;31.70;13.63;;;;;;;;;;5033613;28;20476;-59
2022/12/02 08:36:50;;;;;;;34.57;14.37;;;;;;;;;;5033732;28;20108;-59
2022/12/02 08:39:15;;;;;;;30.20;12.67;;;;;;;;;;5033362;28;20068;-59
2022/12/02 08:41:40;;;;;;;33.80;14.45;;;;;;;;;;5033206;28;20017;-59
2022/12/02 08:44:06;;;;;;;32.07;13.73;;;;;;;;;;5033616;28;20029;-59
2022/12/02 08:46:33;;;;;;;35.10;14.17;;;;;;;;;;5033599;28;20104;-58
2022/12/02 08:48:58;;;;;;;;;;;;;;;;;;5033856;28;20100;-58
2022/12/02 08:51:24;;;;;;;35.35;14.45;;;;;;;;;;5033488;28;20416;-59
2022/12/02 08:53:49;;;;;;;35.53;13.53;;;;;;;;;;5033084;28;20109;-59
2022/12/02 08:56:14;;;;;;;32.07;13.50;;;;;;;;;;5033491;28;20029;-58
2022/12/02 08:58:39;;;;;;;34.20;14.00;;;;;;;;;;5033152;28;20489;-58
2022/12/02 09:01:05;;;;;;;35.45;14.50;;;;;;;;;;5033066;28;20028;-59
2022/12/02 09:03:30;;;;;;;34.78;15.00;;;;;;;;;;5033145;28;20026;-59
2022/12/02 09:05:55;;;;;;;35.17;14.90;;;;;;;;;;5033238;28;20025;-58
2022/12/02 09:08:21;;;;;;;32.93;13.87;;;;;;;;;;5032869;28;20022;-59
2022/12/02 09:10:46;;;;;;;34.83;14.53;;;;;;;;;;5033030;28;20528;-59
2022/12/02 09:13:11;;;;;;;32.70;13.95;;;;;;;;;;5032057;28;20056;-58
2022/12/02 09:15:36;;;;;;;30.70;13.43;;;;;;;;;;5030913;28;20017;-58
2022/12/02 09:18:01;;;;;;;30.90;13.17;;;;;;;;;;5029289;28;20022;-59
2022/12/02 09:20:27;;;;;;;34.47;13.10;;;;;;;;;;5032968;28;20444;-59
2022/12/02 09:22:52;;;;;;;30.93;13.37;;;;;;;;;;5032564;28;20099;-58
2022/12/02 09:25:17;;;;;;;28.60;11.93;;;;;;;;;;5032687;28;20384;-58
2022/12/02 09:27:42;;;;;;;29.00;13.20;;;;;;;;;;5032756;28;20116;-58
2022/12/02 09:30:08;;;;;;;31.13;12.17;;;;;;;;;;5032203;28;20464;-57
2022/12/02 09:32:33;;;;;;;30.05;12.57;;;;;;;;;;5032252;28;20052;-58
2022/12/02 09:34:58;;;;;;;30.80;13.45;;;;;;;;;;5030704;28;20029;-59
2022/12/02 09:37:23;;;;;;;28.20;12.47;;;;;;;;;;5016755;28;20013;-59
2022/12/02 09:39:48;;;;;;;30.80;11.63;;;;;;;;;;5031834;28;20459;-59
2022/12/02 09:42:14;;;;;;;29.67;13.30;;;;;;;;;;5032449;28;20719;-59
2022/12/02 09:44:40;;;;;;;29.63;12.02;;;;;;;;;;5031874;28;20035;-59
2022/12/02 09:47:05;;;;;;;28.73;12.73;;;;;;;;;;5032381;28;20017;-58
2022/12/02 09:49:31;;;;;;;27.63;12.70;;;;;;;;;;5032191;28;20026;-58
2022/12/02 09:51:58;;;;;;;29.43;11.80;;;;;;;;;;5031841;28;20431;-59
2022/12/02 09:54:23;;;;;;;;;;;;;;;;;;5032327;28;20033;-58
2022/12/02 09:56:48;;;;;;;27.05;12.35;;;;;;;;;;5031963;28;19905;-59
2022/12/02 09:59:14;;;;;;;30.87;12.80;;;;;;;;;;5031247;28;20017;-59
2022/12/02 10:01:41;;;;;;;28.95;13.43;;;;;;;;;;5031631;28;20488;-58
2022/12/02 10:04:08;;;;;;;26.65;12.15;;;;;;;;;;5031652;28;20021;-58
2022/12/02 10:06:33;;;;;;;26.20;11.93;;;;;;;;;;5031893;28;20107;-58
2022/12/02 10:08:58;;;;;;;27.10;11.67;;;;;;;;;;5031580;28;20068;-59
2022/12/02 10:11:26;;;;;;;27.33;11.57;;;;;;;;;;5031423;28;20025;-59
2022/12/02 10:13:51;;;;;;;26.67;11.50;;;;;;;;;;5031256;28;20060;-59
2022/12/02 10:16:16;;;;;;;24.98;10.93;;;;;;;;;;5031568;28;20397;-59
2022/12/02 10:18:42;;;;;;;30.60;12.03;;;;;;;;;;5031333;28;20014;-59
2022/12/02 10:21:07;;;;;;;29.90;12.15;;;;;;;;;;5030881;28;20029;-59
2022/12/02 10:23:32;;;;;;;27.77;13.00;;;;;;;;;;5031404;28;20021;-59
2022/12/02 10:26:06;;;;;;;32.30;12.73;;;;;;;;;;5030998;28;20029;-59
2022/12/02 10:28:32;;;;;;;27.35;11.27;;;;;;;;;;5031392;28;20850;-60
2022/12/02 10:31:03;;;;;;;31.02;13.65;;;;;;;;;;5030937;28;20439;-59
2022/12/02 10:33:30;;;;;;;28.80;12.38;;;;;;;;;;5031151;28;20025;-59
2022/12/02 10:35:57;;;;;;;27.60;11.88;;;;;;;;;;5031102;28;20025;-60
2022/12/02 10:38:38;;;;;;;26.45;10.90;;;;;;;;;;5031162;28;20096;-60
2022/12/02 10:41:13;;;;;;;24.00;10.95;;;;;;;;;;5030838;28;20022;-59
2022/12/02 10:43:38;;;;;;;28.02;11.20;;;;;;;;;;5030986;28;20071;-59
2022/12/02 10:46:03;;;;;;;26.10;12.33;;;;;;;;;;5030964;28;20476;-59
2022/12/02 10:48:28;;;;;;;28.13;12.13;;;;;;;;;;5031066;28;20429;-59
2022/12/02 10:50:54;;;;;;;28.53;13.23;;;;;;;;;;5030811;28;20026;-60
2022/12/02 10:53:20;;;;;;;29.20;12.03;;;;;;;;;;5030812;28;20519;-59
2022/12/02 10:55:46;;;;;;;31.48;13.00;;;;;;;;;;5030870;28;20444;-60
2022/12/02 10:58:13;;;;;;;28.88;12.05;;;;;;;;;;5031191;28;20029;-59
2022/12/02 11:00:38;;;;;;;28.85;12.85;;;;;;;;;;5030354;28;20017;-59
2022/12/02 11:03:04;;;;;;;28.27;11.87;;;;;;;;;;5030220;28;20068;-60
2022/12/02 11:05:31;;;;;;;28.20;12.23;;;;;;;;;;5030996;28;20021;-59
2022/12/02 11:07:56;;;;;;;;;;;;;;;;;;5031548;28;20026;-59
2022/12/02 11:10:23;;;;;;;27.20;11.43;;;;;;;;;;5030453;28;19912;-59
2022/12/02 11:12:48;;;;;;;27.30;11.35;;;;;;;;;;5030336;28;20068;-59
2022/12/02 11:15:32;;;;;;;28.50;11.65;;;;;;;;;;5029020;28;20044;-59
2022/12/02 11:17:57;;;;;;;29.02;12.13;;;;;;;;;;5030769;28;20014;-60
2022/12/02 11:20:28;;;;;;;29.47;12.43;;;;;;;;;;5030349;28;20060;-60
2022/12/02 11:23:04;;;;;;;25.25;11.85;;;;;;;;;;5030775;28;20024;-59
2022/12/02 11:25:42;;;;;;;31.42;13.45;;;;;;;;;;5030992;28;20545;-59
2022/12/02 11:28:13;;;;;;;30.17;11.85;;;;;;;;;;5030757;28;20036;-59
2022/12/02 11:30:38;;;;;;;30.65;13.55;;;;;;;;;;5030767;28;20104;-58
2022/12/02 11:33:08;;;;;;;30.20;12.27;;;;;;;;;;5030601;28;20064;-60
2022/12/02 11:35:52;;;;;;;28.52;12.00;;;;;;;;;;5030683;28;20026;-60
2022/12/02 11:38:19;;;;;;;28.23;12.32;;;;;;;;;;5029045;28;20519;-60
2022/12/02 11:40:44;;;;;;;27.00;12.45;;;;;;;;;;5030391;28;20060;-59
2022/12/02 11:43:28;;;;;;;26.13;11.60;;;;;;;;;;5030418;28;20025;-59
2022/12/02 11:45:56;;;;;;;30.15;11.40;;;;;;;;;;5030545;28;20022;-59
2022/12/02 11:48:21;;;;;;;26.92;11.57;;;;;;;;;;5030512;28;20075;-59
2022/12/02 11:50:46;;;;;;;28.40;10.80;;;;;;;;;;5030388;28;20025;-59
2022/12/02 11:53:14;;;;;;;28.17;12.13;;;;;;;;;;5030172;28;20036;-59
2022/12/02 11:55:41;;;;;;;26.92;11.75;;;;;;;;;;5030649;28;20027;-59
2022/12/02 11:58:17;;;;;;;29.45;12.40;;;;;;;;;;5030390;28;20382;-59
2022/12/02 12:00:58;;;;;;;32.50;12.60;;;;;;;;;;5028517;28;20045;-57
2022/12/02 12:03:24;;;;;;;30.90;12.30;;;;;;;;;;5030291;28;20017;-59
2022/12/02 12:06:09;;;;;;;29.55;11.77;;;;;;;;;;5030225;28;20025;-58
2022/12/02 12:08:35;;;;;;;30.73;12.63;;;;;;;;;;5030206;28;20013;-58
2022/12/02 12:11:20;;;;;;;29.05;11.70;;;;;;;;;;5030041;28;20480;-58
2022/12/02 12:14:05;;;;;;;31.27;11.98;;;;;;;;;;5030081;28;20056;-58
2022/12/02 12:16:34;;;;;;;30.67;12.57;;;;;;;;;;5029018;28;20026;-59
2022/12/02 12:19:22;;;;;;;30.73;12.98;;;;;;;;;;5029831;28;20021;-59
2022/12/02 12:21:53;;;;;;;28.05;12.73;;;;;;;;;;5024719;28;20029;-59
2022/12/02 12:24:19;;;;;;;31.17;12.35;;;;;;;;;;5029946;28;20033;-59
2022/12/02 12:26:49;;;;;;;27.58;12.02;;;;;;;;;;5030053;28;20096;-59
2022/12/02 12:29:14;;;;;;;30.48;13.40;;;;;;;;;;5030045;28;20485;-59
2022/12/02 12:31:40;;;;;;;30.30;12.95;;;;;;;;;;5030014;28;20040;-59
2022/12/02 12:34:05;;;;;;;30.58;12.98;;;;;;;;;;5029530;28;20091;-59
2022/12/02 12:36:30;;;;;;;32.75;12.75;;;;;;;;;;5030157;28;20436;-60
2022/12/02 12:38:56;;;;;;;29.50;12.10;;;;;;;;;;5028752;28;20020;-59
2022/12/02 12:41:21;;;;;;;30.27;12.70;;;;;;;;;;5029831;28;20026;-60
2022/12/02 12:43:46;;;;;;;35.33;14.00;;;;;;;;;;5030006;28;20100;-58
2022/12/02 12:46:11;;;;;;;34.27;14.33;;;;;;;;;;5029943;28;20025;-58
2022/12/02 12:48:36;;;;;;;33.17;13.33;;;;;;;;;;5030041;28;20033;-58
2022/12/02 12:51:02;;;;;;;33.37;13.03;;;;;;;;;;5033321;28;20021;-59
2022/12/02 12:53:27;;;;;;;30.63;12.35;;;;;;;;;;5033386;28;20033;-58
2022/12/02 12:55:52;;;;;;;34.10;13.27;;;;;;;;;;5033419;28;20021;-58
2022/12/02 12:58:17;;;;;;;33.17;12.07;;;;;;;;;;5033554;28;20383;-59
2022/12/02 13:00:42;;;;;;;34.30;14.43;;;;;;;;;;5033073;28;20954;-58
2022/12/02 13:03:08;;;;;;;32.93;13.40;;;;;;;;;;5033182;28;20029;-59
2022/12/02 13:05:33;;;;;;;32.87;12.97;;;;;;;;;;5033365;28;20025;-58
2022/12/02 13:07:58;;;;;;;34.37;14.30;;;;;;;;;;5033067;28;20029;-58
2022/12/02 13:10:24;;;;;;;33.77;14.17;;;;;;;;;;5032839;28;20064;-58
2022/12/02 13:12:49;;;;;;;36.47;14.60;;;;;;;;;;5032882;28;20050;-58
2022/12/02 13:15:14;;;;;;;33.63;13.30;;;;;;;;;;5033134;28;20543;-58
2022/12/02 13:17:40;;;;;;;32.20;12.33;;;;;;;;;;5033111;28;20010;-59
2022/12/02 13:20:05;;;;;;;34.63;13.50;;;;;;;;;;5032800;28;20091;-58
2022/12/02 13:22:30;;;;;;;32.42;13.00;;;;;;;;;;5032143;28;20014;-58
2022/12/02 13:24:56;;;;;;;36.10;13.87;;;;;;;;;;5032874;28;20105;-58
2022/12/02 13:27:21;;;;;;;29.47;12.70;;;;;;;;;;5032815;28;20485;-59
2022/12/02 13:29:46;;;;;;;32.30;12.63;;;;;;;;;;5033019;28;20088;-60
2022/12/02 13:32:11;;;;;;;28.33;10.90;;;;;;;;;;5032512;28;20051;-60
2022/12/02 13:34:36;;;;;;;29.10;10.43;;;;;;;;;;5032813;28;20068;-59
2022/12/02 13:37:02;;;;;;;27.83;11.82;;;;;;;;;;5032305;28;20421;-60
2022/12/02 13:39:27;;;;;;;26.10;10.00;;;;;;;;;;5032806;28;20017;-60
2022/12/02 13:41:52;;;;;;;24.90;10.52;;;;;;;;;;5032532;28;20033;-60
2022/12/02 13:44:17;;;;;;;26.90;11.73;;;;;;;;;;5032384;28;20156;-59
2022/12/02 13:46:42;;;;;;;30.80;10.83;;;;;;;;;;5030294;28;20025;-59
2022/12/02 13:49:07;;;;;;;26.63;10.73;;;;;;;;;;5030860;28;20060;-59
2022/12/02 13:51:32;;;;;;;28.35;11.27;;;;;;;;;;5031790;28;20025;-59
2022/12/02 13:53:58;;;;;;;28.20;11.43;;;;;;;;;;5030002;28;20124;-59
2022/12/02 13:56:23;;;;;;;25.47;11.00;;;;;;;;;;5026211;28;20862;-57
2022/12/02 13:58:50;;;;;;;24.93;9.70;;;;;;;;;;5023850;28;20116;-58
2022/12/02 14:01:15;;;;;;;29.77;11.68;;;;;;;;;;5025228;28;20037;-58
2022/12/02 14:03:40;;;;;;;27.43;10.93;;;;;;;;;;5028384;28;20036;-59
2022/12/02 14:06:05;;;;;;;26.17;10.73;;;;;;;;;;5028247;28;20071;-58
2022/12/02 14:08:31;;;;;;;23.92;10.48;;;;;;;;;;5028368;28;20079;-60
2022/12/02 14:10:56;;;;;;;27.97;12.03;;;;;;;;;;5024455;28;20028;-59
2022/12/02 14:13:21;;;;;;;29.30;11.07;;;;;;;;;;5025203;28;20046;-64
2022/12/02 14:15:46;;;;;;;27.27;11.57;;;;;;;;;;5027610;28;20025;-58
2022/12/02 14:18:12;;;;;;;28.13;11.93;;;;;;;;;;5027677;28;20028;-58
2022/12/02 14:20:37;;;;;;;25.40;10.43;;;;;;;;;;5028234;28;20056;-58